createdAt,value
2023-03-15T00:01:47.748Z,10.03
2023-03-15T00:04:15.182Z,10.00
2023-03-15T00:06:42.337Z,10.30
2023-03-15T00:09:10.090Z,10.41
2023-03-15T00:11:37.550Z,9.73
2023-03-15T00:14:06.057Z,9.95
2023-03-15T00:16:33.238Z,9.86
2023-03-15T00:19:00.663Z,9.93
2023-03-15T00:21:29.896Z,9.93
2023-03-15T00:23:57.282Z,9.86
2023-03-15T00:26:24.740Z,9.56
2023-03-15T00:28:51.944Z,9.94
2023-03-15T00:31:23.624Z,9.99
2023-03-15T00:33:53.861Z,9.88
2023-03-15T00:36:23.653Z,9.80
2023-03-15T00:38:53.346Z,9.67
2023-03-15T00:41:21.302Z,9.87
2023-03-15T00:43:48.745Z,9.62
2023-03-15T00:46:16.718Z,9.68
2023-03-15T00:48:43.938Z,9.60
2023-03-15T00:51:12.470Z,9.59
2023-03-15T00:53:41.402Z,9.52
2023-03-15T00:56:13.415Z,9.65
2023-03-15T00:58:41.038Z,9.63
2023-03-15T01:01:12.885Z,9.55
2023-03-15T01:03:40.899Z,9.58
2023-03-15T01:06:12.222Z,9.44
2023-03-15T01:08:39.474Z,9.47
2023-03-15T01:11:08.100Z,9.36
2023-03-15T01:13:35.490Z,9.50
2023-03-15T01:16:03.035Z,9.42
2023-03-15T01:18:31.097Z,9.41
2023-03-15T01:20:58.425Z,9.56
2023-03-15T01:23:25.564Z,9.51
2023-03-15T01:25:53.005Z,9.60
2023-03-15T01:28:20.320Z,9.51
2023-03-15T01:30:51.474Z,9.60
2023-03-15T01:33:19.291Z,9.61
2023-03-15T01:35:46.595Z,9.46
2023-03-15T01:38:13.866Z,9.63
2023-03-15T01:40:42.441Z,9.44
2023-03-15T01:43:28.187Z,9.57
2023-03-15T01:46:03.873Z,9.84
2023-03-15T01:48:44.841Z,9.93
2023-03-15T01:51:51.394Z,9.62
2023-03-15T01:54:38.925Z,9.32
2023-03-15T01:57:07.901Z,9.45
2023-03-15T01:59:36.893Z,9.47
2023-03-15T02:02:04.249Z,9.05
2023-03-15T02:04:36.381Z,9.51
2023-03-15T02:07:03.749Z,9.63
2023-03-15T02:10:00.816Z,9.39
2023-03-15T02:12:29.191Z,9.37
2023-03-15T02:14:57.466Z,9.14
2023-03-15T02:17:28.759Z,9.24
2023-03-15T02:19:58.468Z,9.50
2023-03-15T02:22:25.618Z,9.10
2023-03-15T02:24:55.621Z,9.09
2023-03-15T02:27:31.266Z,8.96
2023-03-15T02:29:58.445Z,9.13
2023-03-15T02:32:25.917Z,9.01
2023-03-15T02:34:53.188Z,9.14
2023-03-15T02:37:21.447Z,8.82
2023-03-15T02:39:48.904Z,8.81
2023-03-15T02:42:17.197Z,8.59
2023-03-15T02:44:44.487Z,8.66
2023-03-15T02:47:17.280Z,8.71
2023-03-15T02:49:45.093Z,9.02
2023-03-15T02:52:14.100Z,8.91
2023-03-15T02:54:43.408Z,9.09
2023-03-15T02:57:11.272Z,8.78
2023-03-15T02:59:39.930Z,8.87
2023-03-15T03:02:07.889Z,8.82
2023-03-15T03:04:35.128Z,8.99
2023-03-15T03:07:02.617Z,8.61
2023-03-15T03:09:31.069Z,8.76
2023-03-15T03:11:59.150Z,8.69
2023-03-15T03:14:27.483Z,8.61
2023-03-15T03:16:55.893Z,8.62
2023-03-15T03:19:25.737Z,8.53
2023-03-15T03:21:56.792Z,8.65
2023-03-15T03:24:25.871Z,8.68
2023-03-15T03:26:57.979Z,8.79
2023-03-15T03:29:27.031Z,8.73
2023-03-15T03:31:54.452Z,8.80
2023-03-15T03:34:21.787Z,8.56
2023-03-15T03:36:50.848Z,8.57
2023-03-15T03:39:18.479Z,8.60
2023-03-15T03:41:45.843Z,8.62
2023-03-15T03:44:13.463Z,8.40
2023-03-15T03:46:40.902Z,8.46
2023-03-15T03:49:08.164Z,8.50
2023-03-15T03:51:36.364Z,8.45
2023-03-15T03:54:03.801Z,8.63
2023-03-15T03:56:31.262Z,8.64
2023-03-15T03:58:58.722Z,8.84
2023-03-15T04:01:26.410Z,8.81
2023-03-15T04:03:54.856Z,8.93
2023-03-15T04:06:23.242Z,8.94
2023-03-15T04:08:50.508Z,8.91
2023-03-15T04:11:19.807Z,8.68
2023-03-15T04:13:49.382Z,8.68
2023-03-15T04:16:17.008Z,8.82
2023-03-15T04:18:48.685Z,9.03
2023-03-15T04:21:16.088Z,8.88
2023-03-15T04:23:43.624Z,8.74
2023-03-15T04:26:11.266Z,8.66
2023-03-15T04:28:38.986Z,8.18
2023-03-15T04:31:10.714Z,8.27
2023-03-15T04:33:38.659Z,8.14
2023-03-15T04:36:06.084Z,7.93
2023-03-15T04:38:35.523Z,7.70
2023-03-15T04:41:10.896Z,7.98
2023-03-15T04:43:38.325Z,8.04
2023-03-15T04:46:06.181Z,8.14
2023-03-15T04:48:36.093Z,7.85
2023-03-15T04:51:04.994Z,7.47
2023-03-15T04:53:33.055Z,7.55
2023-03-15T04:56:00.783Z,7.57
2023-03-15T04:58:29.700Z,8.14
2023-03-15T05:00:57.328Z,7.93
2023-03-15T05:03:25.219Z,7.66
2023-03-15T05:06:11.885Z,7.54
2023-03-15T05:08:39.532Z,7.61
2023-03-15T05:11:07.088Z,7.63
2023-03-15T05:13:34.827Z,7.58
2023-03-15T05:16:02.584Z,7.31
2023-03-15T05:18:31.553Z,7.16
2023-03-15T05:20:59.554Z,7.16
2023-03-15T05:23:27.967Z,7.15
2023-03-15T05:25:55.795Z,7.37
2023-03-15T05:28:23.753Z,6.99
2023-03-15T05:30:54.417Z,7.00
2023-03-15T05:33:21.790Z,6.48
2023-03-15T05:35:49.546Z,6.48
2023-03-15T05:38:17.084Z,6.71
2023-03-15T05:40:44.887Z,6.81
2023-03-15T05:43:12.686Z,6.72
2023-03-15T05:45:40.964Z,6.58
2023-03-15T05:48:08.433Z,6.45
2023-03-15T05:50:36.416Z,6.88
2023-03-15T05:53:04.158Z,6.93
2023-03-15T05:55:31.952Z,7.01
2023-03-15T05:57:59.723Z,6.85
2023-03-15T06:00:27.364Z,6.78
2023-03-15T06:02:55.367Z,6.62
2023-03-15T06:05:22.941Z,6.53
2023-03-15T06:07:50.379Z,6.69
2023-03-15T06:10:18.491Z,6.19
2023-03-15T06:12:45.741Z,6.58
2023-03-15T06:15:13.042Z,6.55
2023-03-15T06:17:40.526Z,6.58
2023-03-15T06:20:08.041Z,6.67
2023-03-15T06:22:35.322Z,6.84
2023-03-15T06:25:21.708Z,7.03
2023-03-15T06:27:48.900Z,6.70
2023-03-15T06:30:17.915Z,7.14
2023-03-15T06:32:45.412Z,7.18
2023-03-15T06:35:12.659Z,7.33
2023-03-15T06:37:41.909Z,7.16
2023-03-15T06:40:11.406Z,7.46
2023-03-15T06:42:39.434Z,6.63
2023-03-15T06:45:10.629Z,6.94
2023-03-15T06:47:38.370Z,6.62
2023-03-15T06:50:05.954Z,6.94
2023-03-15T06:52:33.647Z,6.87
2023-03-15T06:55:00.845Z,6.68
2023-03-15T06:57:28.349Z,6.84
2023-03-15T06:59:55.851Z,6.75
2023-03-15T07:02:23.042Z,7.02
2023-03-15T07:04:50.239Z,6.99
2023-03-15T07:07:17.669Z,6.70
2023-03-15T07:09:44.890Z,6.62
2023-03-15T07:12:12.125Z,6.71
2023-03-15T07:14:39.869Z,7.02
2023-03-15T07:17:07.084Z,7.03
2023-03-15T07:19:35.808Z,6.83
2023-03-15T07:22:04.691Z,6.83
2023-03-15T07:24:31.860Z,6.74
2023-03-15T07:26:59.018Z,6.49
2023-03-15T07:29:26.762Z,6.08
2023-03-15T07:32:00.357Z,6.35
2023-03-15T07:34:35.368Z,6.31
2023-03-15T07:37:02.645Z,6.65
2023-03-15T07:39:32.734Z,6.74
2023-03-15T07:42:00.021Z,6.58
2023-03-15T07:44:30.750Z,6.48
2023-03-15T07:46:58.041Z,6.30
2023-03-15T07:49:25.321Z,6.34
2023-03-15T07:51:53.195Z,6.06
2023-03-15T07:54:20.945Z,6.31
2023-03-15T07:56:50.182Z,6.43
2023-03-15T07:59:17.815Z,6.70
2023-03-15T08:01:45.075Z,6.77
2023-03-15T08:04:12.784Z,6.61
2023-03-15T08:06:40.092Z,6.67
2023-03-15T08:09:07.374Z,6.79
2023-03-15T08:14:08.150Z,6.87
2023-03-15T08:16:35.673Z,6.81
2023-03-15T08:19:02.812Z,6.54
2023-03-15T08:21:29.961Z,6.71
2023-03-15T08:23:57.407Z,6.68
2023-03-15T08:26:24.541Z,6.50
2023-03-15T08:28:51.817Z,6.50
2023-03-15T08:31:19.849Z,6.41
2023-03-15T08:33:47.160Z,6.37
2023-03-15T08:36:14.386Z,6.53
2023-03-15T08:38:41.914Z,6.62
2023-03-15T08:41:09.098Z,6.60
2023-03-15T08:43:36.350Z,6.28
2023-03-15T08:46:03.775Z,6.40
2023-03-15T08:48:31.643Z,6.54
2023-03-15T08:51:03.116Z,6.39
2023-03-15T08:53:31.258Z,6.55
2023-03-15T08:55:58.551Z,6.19
2023-03-15T08:58:25.711Z,6.16
2023-03-15T09:00:53.270Z,6.42
2023-03-15T09:03:20.595Z,6.43
2023-03-15T09:05:47.848Z,6.55
2023-03-15T09:08:17.918Z,6.09
2023-03-15T09:10:45.153Z,6.06
2023-03-15T09:13:12.338Z,6.27
2023-03-15T09:15:39.764Z,6.48
2023-03-15T09:18:06.914Z,6.61
2023-03-15T09:20:35.093Z,6.69
2023-03-15T09:23:02.729Z,6.86
2023-03-15T09:25:30.000Z,6.84
2023-03-15T09:27:57.212Z,6.49
2023-03-15T09:30:25.427Z,6.64
2023-03-15T09:32:52.741Z,6.69
2023-03-15T09:35:20.548Z,6.66
2023-03-15T09:37:48.634Z,6.67
2023-03-15T09:40:15.801Z,6.78
2023-03-15T09:42:46.180Z,7.02
2023-03-15T09:45:19.499Z,6.89
2023-03-15T09:47:48.268Z,6.91
2023-03-15T09:50:23.372Z,7.08
2023-03-15T09:52:51.376Z,7.00
2023-03-15T09:55:18.892Z,7.02
2023-03-15T09:57:53.045Z,7.01
2023-03-15T10:00:21.523Z,6.87
2023-03-15T10:02:54.913Z,6.68
2023-03-15T10:05:23.314Z,6.78
2023-03-15T10:07:50.745Z,7.02
2023-03-15T10:10:18.898Z,6.84
2023-03-15T10:12:46.992Z,7.09
2023-03-15T10:15:23.867Z,7.01
2023-03-15T10:18:00.167Z,7.22
2023-03-15T10:20:34.904Z,7.09
2023-03-15T10:23:28.450Z,7.12
2023-03-15T10:25:58.518Z,7.00
2023-03-15T10:28:31.210Z,7.14
2023-03-15T10:31:00.835Z,7.00
2023-03-15T10:33:35.958Z,7.29
2023-03-15T10:36:11.384Z,7.34
2023-03-15T10:38:39.162Z,7.42
2023-03-15T10:41:08.684Z,7.46
2023-03-15T10:43:37.417Z,7.63
2023-03-15T10:46:11.466Z,7.72
2023-03-15T10:48:58.675Z,7.25
2023-03-15T10:51:30.433Z,7.32
2023-03-15T10:54:13.360Z,7.22
2023-03-15T10:56:48.005Z,7.55
2023-03-15T10:59:16.914Z,7.62
2023-03-15T11:01:46.534Z,7.45
2023-03-15T11:04:18.620Z,7.05
2023-03-15T11:06:47.720Z,7.27
2023-03-15T11:09:23.358Z,7.40
2023-03-15T11:11:53.843Z,7.20
2023-03-15T11:14:21.231Z,7.15
2023-03-15T11:16:52.655Z,7.12
2023-03-15T11:19:21.220Z,7.15
2023-03-15T11:21:48.648Z,7.23
2023-03-15T11:24:42.335Z,7.11
2023-03-15T11:27:12.306Z,7.51
2023-03-15T11:29:40.630Z,7.26
2023-03-15T11:32:18.934Z,7.77
2023-03-15T11:35:05.424Z,7.43
2023-03-15T11:37:42.937Z,7.62
2023-03-15T11:40:28.815Z,7.07
2023-03-15T11:43:14.182Z,7.09
2023-03-15T11:45:43.356Z,7.31
2023-03-15T11:48:25.746Z,7.05
2023-03-15T11:50:56.153Z,7.21
2023-03-15T11:53:23.950Z,7.13
2023-03-15T11:55:53.807Z,7.38
2023-03-15T11:58:34.635Z,7.45
2023-03-15T12:01:02.830Z,7.61
2023-03-15T12:03:30.465Z,7.82
2023-03-15T12:06:00.864Z,7.45
2023-03-15T12:08:34.927Z,7.53
2023-03-15T12:11:02.535Z,7.59
2023-03-15T12:13:30.597Z,7.61
2023-03-15T12:15:58.095Z,7.77
2023-03-15T12:18:27.217Z,7.61
2023-03-15T12:21:13.471Z,8.05
2023-03-15T12:23:43.943Z,8.04
2023-03-15T12:26:23.446Z,8.06
2023-03-15T12:29:06.598Z,8.08
2023-03-15T12:31:43.828Z,8.49
2023-03-15T12:34:15.325Z,8.66
2023-03-15T12:36:42.642Z,8.68
2023-03-15T12:39:09.828Z,8.87
2023-03-15T12:41:41.156Z,8.56
2023-03-15T12:44:26.852Z,8.52
2023-03-15T12:46:55.174Z,8.91
2023-03-15T12:49:25.386Z,8.68
2023-03-15T12:52:04.210Z,8.78
2023-03-15T12:54:50.518Z,8.94
2023-03-15T12:57:28.269Z,8.39
2023-03-15T13:00:11.918Z,8.55
2023-03-15T13:02:46.072Z,8.63
2023-03-15T13:05:37.534Z,8.29
2023-03-15T13:08:04.674Z,8.32
2023-03-15T13:10:50.888Z,8.26
2023-03-15T13:13:21.006Z,7.95
2023-03-15T13:16:02.209Z,8.36
2023-03-15T13:18:34.358Z,8.61
2023-03-15T13:21:02.088Z,8.55
2023-03-15T13:23:31.842Z,8.61
2023-03-15T13:26:17.546Z,8.54
2023-03-15T13:28:52.236Z,8.60
2023-03-15T13:31:19.765Z,8.46
2023-03-15T13:33:49.165Z,8.36
2023-03-15T13:36:23.609Z,8.49
2023-03-15T13:38:53.456Z,8.90
2023-03-15T13:41:26.089Z,8.58
2023-03-15T13:43:56.682Z,8.32
2023-03-15T13:46:26.819Z,8.35
2023-03-15T13:48:55.218Z,8.19
2023-03-15T13:51:35.899Z,8.26
2023-03-15T13:54:07.482Z,7.70
2023-03-15T13:56:48.759Z,7.92
2023-03-15T13:59:17.703Z,7.62
2023-03-15T14:01:45.371Z,7.84
2023-03-15T14:04:16.438Z,7.71
2023-03-15T14:06:46.902Z,8.10
2023-03-15T14:09:23.265Z,7.76
2023-03-15T14:12:02.513Z,7.79
2023-03-15T14:14:31.400Z,8.12
2023-03-15T14:17:05.896Z,7.97
2023-03-15T14:19:35.251Z,7.85
2023-03-15T14:22:12.692Z,8.05
2023-03-15T14:24:42.579Z,8.03
2023-03-15T14:27:36.692Z,7.97
2023-03-15T14:30:04.713Z,7.96
2023-03-15T14:32:34.760Z,7.91
2023-03-15T14:35:03.998Z,7.75
2023-03-15T14:37:38.090Z,7.78
2023-03-15T14:40:30.617Z,7.71
2023-03-15T14:42:58.444Z,8.04
2023-03-15T14:45:27.484Z,8.41
2023-03-15T14:47:58.728Z,8.11
2023-03-15T14:50:28.925Z,7.71
2023-03-15T14:52:57.307Z,8.19
2023-03-15T14:55:29.486Z,8.21
2023-03-15T14:57:57.205Z,8.12
2023-03-15T15:00:25.115Z,8.46
2023-03-15T15:02:56.252Z,8.13
2023-03-15T15:05:32.394Z,8.03
2023-03-15T15:08:06.269Z,8.07
2023-03-15T15:10:34.858Z,7.77
2023-03-15T15:13:06.666Z,7.98
2023-03-15T15:15:51.187Z,7.84
2023-03-15T15:18:25.987Z,7.56
2023-03-15T15:20:58.594Z,7.60
2023-03-15T15:23:29.537Z,7.48
2023-03-15T15:26:05.245Z,7.75
2023-03-15T15:28:36.849Z,7.67
2023-03-15T15:31:07.134Z,7.88
2023-03-15T15:33:35.255Z,7.68
2023-03-15T15:36:04.433Z,7.75
2023-03-15T15:38:38.952Z,7.81
2023-03-15T15:41:13.431Z,7.66
2023-03-15T15:43:46.472Z,7.64
2023-03-15T15:46:14.849Z,7.44
2023-03-15T15:48:45.565Z,7.52
2023-03-15T15:51:29.601Z,7.57
2023-03-15T15:53:59.523Z,7.67
2023-03-15T15:56:31.492Z,7.46
2023-03-15T15:59:01.043Z,7.64
2023-03-15T16:01:28.950Z,7.65
2023-03-15T16:03:57.432Z,7.70
2023-03-15T16:06:25.147Z,7.87
2023-03-15T16:08:53.682Z,7.81
2023-03-15T16:11:21.575Z,7.78
2023-03-15T16:13:55.900Z,7.65
2023-03-15T16:16:23.827Z,7.94
2023-03-15T16:18:51.281Z,7.77
2023-03-15T16:21:28.921Z,7.62
2023-03-15T16:24:22.403Z,7.71
2023-03-15T16:26:51.239Z,7.21
2023-03-15T16:29:22.654Z,7.33
2023-03-15T16:31:51.395Z,7.24
2023-03-15T16:34:24.670Z,7.17
2023-03-15T16:36:56.146Z,7.23
2023-03-15T16:39:24.622Z,7.46
2023-03-15T16:41:56.962Z,7.60
2023-03-15T16:44:32.692Z,7.06
2023-03-15T16:47:00.724Z,7.25
2023-03-15T16:49:30.584Z,7.63
2023-03-15T16:51:59.230Z,7.64
2023-03-15T16:54:40.572Z,7.02
2023-03-15T16:57:22.330Z,7.34
2023-03-15T16:59:51.754Z,7.13
2023-03-15T17:02:23.395Z,7.00
2023-03-15T17:04:53.273Z,7.08
2023-03-15T17:07:28.758Z,7.22
2023-03-15T17:09:59.540Z,6.88
2023-03-15T17:12:31.364Z,7.06
2023-03-15T17:15:04.014Z,6.94
2023-03-15T17:17:34.401Z,6.83
2023-03-15T17:20:07.105Z,7.04
2023-03-15T17:22:42.425Z,7.00
2023-03-15T17:25:11.791Z,7.16
2023-03-15T17:27:42.017Z,7.24
2023-03-15T17:30:22.742Z,6.87
2023-03-15T17:32:53.147Z,6.78
2023-03-15T17:35:24.112Z,6.66
2023-03-15T17:37:53.630Z,6.61
2023-03-15T17:40:25.596Z,6.39
2023-03-15T17:42:56.242Z,7.00
2023-03-15T17:45:33.543Z,7.12
2023-03-15T17:48:03.248Z,7.04
2023-03-15T17:50:33.997Z,6.74
2023-03-15T17:53:20.935Z,6.78
2023-03-15T17:55:49.854Z,6.69
2023-03-15T17:58:21.909Z,6.68
2023-03-15T18:00:51.952Z,6.47
2023-03-15T18:03:21.298Z,6.80
2023-03-15T18:05:50.623Z,6.85
2023-03-15T18:08:21.997Z,6.65
2023-03-15T18:10:52.072Z,6.73
2023-03-15T18:13:24.675Z,6.87
2023-03-15T18:15:54.018Z,6.71
2023-03-15T18:18:23.844Z,6.53
2023-03-15T18:20:52.361Z,6.37
2023-03-15T18:23:20.971Z,6.55
2023-03-15T18:25:49.770Z,6.56
2023-03-15T18:28:18.692Z,6.75
2023-03-15T18:30:49.124Z,6.79
2023-03-15T18:33:19.527Z,6.69
2023-03-15T18:35:49.677Z,6.41
2023-03-15T18:38:21.298Z,6.50
2023-03-15T18:40:52.181Z,6.52
2023-03-15T18:43:21.904Z,6.50
2023-03-15T18:45:51.759Z,6.73
2023-03-15T18:48:27.824Z,6.68
2023-03-15T18:51:03.536Z,6.91
2023-03-15T18:53:32.995Z,6.51
2023-03-15T18:56:05.045Z,6.53
2023-03-15T18:58:34.140Z,6.57
2023-03-15T19:01:03.109Z,6.46
2023-03-15T19:03:32.196Z,6.77
2023-03-15T19:06:09.402Z,6.67
2023-03-15T19:08:39.349Z,6.36
2023-03-15T19:11:08.621Z,6.49
2023-03-15T19:13:38.686Z,6.54
2023-03-15T19:16:08.379Z,6.46
2023-03-15T19:18:36.762Z,6.67
2023-03-15T19:21:05.811Z,6.24
2023-03-15T19:23:35.340Z,6.41
2023-03-15T19:26:04.772Z,6.63
2023-03-15T19:28:33.612Z,6.28
2023-03-15T19:31:04.958Z,6.26
2023-03-15T19:33:35.691Z,5.98
2023-03-15T19:36:05.920Z,6.54
2023-03-15T19:38:36.900Z,6.85
2023-03-15T19:41:09.743Z,6.48
2023-03-15T19:43:43.007Z,6.38
2023-03-15T19:46:14.444Z,6.14
2023-03-15T19:48:47.851Z,6.42
2023-03-15T19:51:17.809Z,6.07
2023-03-15T19:53:48.146Z,6.21
2023-03-15T19:56:17.683Z,6.40
2023-03-15T19:58:46.846Z,6.41
2023-03-15T20:01:16.793Z,6.26
2023-03-15T20:03:46.526Z,6.65
2023-03-15T20:06:17.833Z,6.76
2023-03-15T20:08:47.286Z,6.42
2023-03-15T20:11:20.825Z,6.41
2023-03-15T20:13:50.868Z,6.42
2023-03-15T20:16:20.650Z,6.15
2023-03-15T20:18:55.313Z,6.47
2023-03-15T20:21:28.385Z,6.26
2023-03-15T20:24:01.921Z,6.41
2023-03-15T20:26:33.241Z,6.09
2023-03-15T20:29:02.671Z,5.59
2023-03-15T20:31:33.300Z,6.15
2023-03-15T20:34:03.883Z,6.19
2023-03-15T20:36:33.748Z,5.88
2023-03-15T20:39:06.416Z,6.22
2023-03-15T20:41:41.275Z,6.10
2023-03-15T20:44:10.641Z,6.46
2023-03-15T20:46:40.508Z,6.24
2023-03-15T20:49:09.670Z,6.34
2023-03-15T20:51:39.618Z,6.04
2023-03-15T20:54:10.091Z,5.88
2023-03-15T20:56:39.520Z,6.62
2023-03-15T20:59:08.543Z,6.01
2023-03-15T21:01:37.079Z,6.25
2023-03-15T21:04:12.272Z,6.24
2023-03-15T21:06:43.216Z,6.10
2023-03-15T21:09:13.167Z,5.70
2023-03-15T21:11:43.505Z,5.94
2023-03-15T21:14:13.238Z,6.03
2023-03-15T21:16:42.466Z,5.89
2023-03-15T21:19:12.450Z,6.28
2023-03-15T21:21:43.668Z,6.01
2023-03-15T21:24:12.461Z,6.34
2023-03-15T21:26:44.307Z,6.44
2023-03-15T21:29:13.019Z,6.41
2023-03-15T21:31:42.238Z,6.68
2023-03-15T21:34:10.603Z,6.86
2023-03-15T21:36:39.920Z,6.78
2023-03-15T21:39:08.828Z,6.55
2023-03-15T21:41:40.545Z,6.65
2023-03-15T21:44:09.343Z,6.64
2023-03-15T21:46:37.802Z,6.25
2023-03-15T21:49:05.845Z,7.26
2023-03-15T21:51:34.219Z,7.35
2023-03-15T21:54:02.160Z,6.93
2023-03-15T21:56:30.124Z,7.38
2023-03-15T21:58:58.403Z,7.45
2023-03-15T22:01:26.058Z,7.47
2023-03-15T22:03:53.828Z,7.35
2023-03-15T22:06:22.386Z,6.49
2023-03-15T22:08:50.460Z,6.49
2023-03-15T22:11:19.233Z,7.00
2023-03-15T22:13:46.636Z,6.37
2023-03-15T22:16:14.402Z,6.81
2023-03-15T22:18:42.153Z,6.49
2023-03-15T22:21:09.652Z,6.09
2023-03-15T22:23:37.109Z,6.13
2023-03-15T22:26:04.969Z,5.86
2023-03-15T22:28:33.183Z,5.28
2023-03-15T22:31:01.716Z,5.86
2023-03-15T22:33:29.628Z,5.57
2023-03-15T22:35:58.337Z,5.40
2023-03-15T22:38:26.310Z,5.20
2023-03-15T22:41:06.729Z,5.19
2023-03-15T22:43:35.183Z,5.11
2023-03-15T22:46:04.124Z,4.92
2023-03-15T22:48:31.623Z,4.95
2023-03-15T22:51:04.364Z,4.85
2023-03-15T22:53:32.277Z,4.79
2023-03-15T22:56:00.062Z,4.75
2023-03-15T22:58:29.581Z,4.73
2023-03-15T23:00:57.260Z,4.61
2023-03-15T23:03:25.250Z,4.59
2023-03-15T23:05:53.769Z,4.66
2023-03-15T23:08:22.810Z,4.53
2023-03-15T23:10:50.614Z,4.62
2023-03-15T23:13:18.354Z,4.65
2023-03-15T23:15:46.052Z,4.74
2023-03-15T23:18:14.720Z,4.73
2023-03-15T23:20:42.822Z,4.64
2023-03-15T23:23:10.497Z,4.62
2023-03-15T23:25:38.971Z,4.58
2023-03-15T23:28:06.882Z,4.56
2023-03-15T23:30:36.213Z,4.60
2023-03-15T23:33:04.707Z,4.53
2023-03-15T23:35:32.370Z,4.46
2023-03-15T23:38:00.096Z,4.32
2023-03-15T23:40:29.882Z,4.36
2023-03-15T23:43:00.516Z,4.39
2023-03-15T23:45:30.033Z,4.32
2023-03-15T23:47:57.978Z,4.22
2023-03-15T23:50:26.403Z,4.11
2023-03-15T23:52:56.341Z,4.29
2023-03-15T23:55:24.107Z,4.17
2023-03-15T23:57:51.892Z,4.23
